sensor_id;sensor_type;location;lat;lon;timestamp;pressure;altitude;pressure_sealevel;temperature;humidity
24154;BME280;12312;53.362;-1.518;2023-04-03T00:00:27;57923.84;;;-139.99;100.00
24154;BME280;12312;53.362;-1.518;2023-04-03T00:03:10;57923.84;;;-139.99;100.00
24154;BME280;12312;53.362;-1.518;2023-04-03T00:05:54;57923.84;;;-139.99;100.00
24154;BME280;12312;53.362;-1.518;2023-04-03T00:08:39;57923.84;;;-139.99;100.00
24154;BME280;12312;53.362;-1.518;2023-04-03T00:11:24;57923.84;;;-139.99;100.00
24154;BME280;12312;53.362;-1.518;2023-04-03T00:14:09;57923.84;;;-139.99;100.00
24154;BME280;12312;53.362;-1.518;2023-04-03T00:16:53;57923.84;;;-139.99;100.00
24154;BME280;12312;53.362;-1.518;2023-04-03T00:19:37;57923.84;;;-139.99;100.00
24154;BME280;12312;53.362;-1.518;2023-04-03T00:22:21;57923.84;;;-139.99;100.00
24154;BME280;12312;53.362;-1.518;2023-04-03T00:25:06;57923.84;;;-139.99;100.00
24154;BME280;12312;53.362;-1.518;2023-04-03T00:27:50;57923.84;;;-139.99;100.00
24154;BME280;12312;53.362;-1.518;2023-04-03T00:30:33;57923.84;;;-139.99;100.00
24154;BME280;12312;53.362;-1.518;2023-04-03T00:33:18;57923.84;;;-139.99;100.00
24154;BME280;12312;53.362;-1.518;2023-04-03T00:36:07;57923.84;;;-139.99;100.00
24154;BME280;12312;53.362;-1.518;2023-04-03T00:38:51;57923.84;;;-139.99;100.00
24154;BME280;12312;53.362;-1.518;2023-04-03T00:41:35;57923.84;;;-139.99;100.00
24154;BME280;12312;53.362;-1.518;2023-04-03T00:44:21;57923.84;;;-139.99;100.00
24154;BME280;12312;53.362;-1.518;2023-04-03T00:47:07;57923.84;;;-139.99;100.00
24154;BME280;12312;53.362;-1.518;2023-04-03T00:49:53;57923.84;;;-139.99;100.00
24154;BME280;12312;53.362;-1.518;2023-04-03T00:52:37;57923.84;;;-139.99;100.00
24154;BME280;12312;53.362;-1.518;2023-04-03T00:55:22;57923.84;;;-139.99;100.00
24154;BME280;12312;53.362;-1.518;2023-04-03T00:58:07;57923.84;;;-139.99;100.00
24154;BME280;12312;53.362;-1.518;2023-04-03T01:00:55;57923.84;;;-139.99;100.00
24154;BME280;12312;53.362;-1.518;2023-04-03T01:03:41;57923.84;;;-139.99;100.00
24154;BME280;12312;53.362;-1.518;2023-04-03T01:06:29;57923.84;;;-139.99;100.00
24154;BME280;12312;53.362;-1.518;2023-04-03T01:09:17;57923.84;;;-139.99;100.00
24154;BME280;12312;53.362;-1.518;2023-04-03T01:12:18;57923.84;;;-139.99;100.00
24154;BME280;12312;53.362;-1.518;2023-04-03T01:15:05;57923.84;;;-139.99;100.00
24154;BME280;12312;53.362;-1.518;2023-04-03T01:17:54;57923.84;;;-139.99;100.00
24154;BME280;12312;53.362;-1.518;2023-04-03T01:26:29;57923.84;;;-139.99;100.00
24154;BME280;12312;53.362;-1.518;2023-04-03T01:29:14;57923.84;;;-139.99;100.00
24154;BME280;12312;53.362;-1.518;2023-04-03T01:31:59;57923.84;;;-139.99;100.00
24154;BME280;12312;53.362;-1.518;2023-04-03T01:34:44;57923.84;;;-139.99;100.00
24154;BME280;12312;53.362;-1.518;2023-04-03T01:37:28;57923.84;;;-139.99;100.00
24154;BME280;12312;53.362;-1.518;2023-04-03T01:40:12;57923.84;;;-139.99;100.00
24154;BME280;12312;53.362;-1.518;2023-04-03T01:42:57;57923.84;;;-139.99;100.00
24154;BME280;12312;53.362;-1.518;2023-04-03T01:45:41;57923.84;;;-139.99;100.00
24154;BME280;12312;53.362;-1.518;2023-04-03T01:48:25;57923.84;;;-139.99;100.00
24154;BME280;12312;53.362;-1.518;2023-04-03T01:51:09;57923.84;;;-139.99;100.00
24154;BME280;12312;53.362;-1.518;2023-04-03T01:53:53;57923.84;;;-139.99;100.00
24154;BME280;12312;53.362;-1.518;2023-04-03T01:56:37;57923.84;;;-139.99;100.00
24154;BME280;12312;53.362;-1.518;2023-04-03T01:59:22;57923.84;;;-139.99;100.00
24154;BME280;12312;53.362;-1.518;2023-04-03T02:02:07;57923.84;;;-139.99;100.00
24154;BME280;12312;53.362;-1.518;2023-04-03T02:08:32;57923.84;;;-139.99;100.00
24154;BME280;12312;53.362;-1.518;2023-04-03T02:11:15;57923.84;;;-139.99;100.00
24154;BME280;12312;53.362;-1.518;2023-04-03T02:14:00;57923.84;;;-139.99;100.00
24154;BME280;12312;53.362;-1.518;2023-04-03T02:16:44;57923.84;;;-139.99;100.00
24154;BME280;12312;53.362;-1.518;2023-04-03T02:19:29;57923.84;;;-139.99;100.00
24154;BME280;12312;53.362;-1.518;2023-04-03T02:22:14;57923.84;;;-139.99;100.00
24154;BME280;12312;53.362;-1.518;2023-04-03T02:24:59;57923.84;;;-139.99;100.00
24154;BME280;12312;53.362;-1.518;2023-04-03T02:27:43;57923.84;;;-139.99;100.00
24154;BME280;12312;53.362;-1.518;2023-04-03T02:30:27;57923.84;;;-139.99;100.00
24154;BME280;12312;53.362;-1.518;2023-04-03T02:33:11;57923.84;;;-139.99;100.00
24154;BME280;12312;53.362;-1.518;2023-04-03T02:35:56;57923.84;;;-139.99;100.00
24154;BME280;12312;53.362;-1.518;2023-04-03T02:38:40;57923.84;;;-139.99;100.00
24154;BME280;12312;53.362;-1.518;2023-04-03T02:41:24;57923.84;;;-139.99;100.00
24154;BME280;12312;53.362;-1.518;2023-04-03T02:44:12;57923.84;;;-139.99;100.00
24154;BME280;12312;53.362;-1.518;2023-04-03T02:46:56;57923.84;;;-139.99;100.00
24154;BME280;12312;53.362;-1.518;2023-04-03T02:49:40;57923.84;;;-139.99;100.00
24154;BME280;12312;53.362;-1.518;2023-04-03T02:52:24;57923.84;;;-139.99;100.00
24154;BME280;12312;53.362;-1.518;2023-04-03T02:55:13;57923.84;;;-139.99;100.00
24154;BME280;12312;53.362;-1.518;2023-04-03T02:57:59;57923.84;;;-139.99;100.00
24154;BME280;12312;53.362;-1.518;2023-04-03T03:00:43;57923.84;;;-139.99;100.00
24154;BME280;12312;53.362;-1.518;2023-04-03T03:03:27;57923.84;;;-139.99;100.00
24154;BME280;12312;53.362;-1.518;2023-04-03T03:06:14;57923.84;;;-139.99;100.00
24154;BME280;12312;53.362;-1.518;2023-04-03T03:08:58;57923.84;;;-139.99;100.00
24154;BME280;12312;53.362;-1.518;2023-04-03T03:11:43;57923.84;;;-139.99;100.00
24154;BME280;12312;53.362;-1.518;2023-04-03T03:14:27;57923.84;;;-139.99;100.00
24154;BME280;12312;53.362;-1.518;2023-04-03T03:17:11;57923.84;;;-139.99;100.00
24154;BME280;12312;53.362;-1.518;2023-04-03T03:19:55;57923.84;;;-139.99;100.00
24154;BME280;12312;53.362;-1.518;2023-04-03T03:22:39;57923.84;;;-139.99;100.00
24154;BME280;12312;53.362;-1.518;2023-04-03T03:25:23;57923.84;;;-139.99;100.00
24154;BME280;12312;53.362;-1.518;2023-04-03T03:28:08;57923.84;;;-139.99;100.00
24154;BME280;12312;53.362;-1.518;2023-04-03T03:30:52;57923.84;;;-139.99;100.00
24154;BME280;12312;53.362;-1.518;2023-04-03T03:33:36;57923.84;;;-139.99;100.00
24154;BME280;12312;53.362;-1.518;2023-04-03T03:36:21;57923.84;;;-139.99;100.00
24154;BME280;12312;53.362;-1.518;2023-04-03T03:39:05;57923.84;;;-139.99;100.00
24154;BME280;12312;53.362;-1.518;2023-04-03T03:41:49;57923.84;;;-139.99;100.00
24154;BME280;12312;53.362;-1.518;2023-04-03T03:44:33;57923.84;;;-139.99;100.00
24154;BME280;12312;53.362;-1.518;2023-04-03T03:47:17;57923.84;;;-139.99;100.00
24154;BME280;12312;53.362;-1.518;2023-04-03T03:50:01;57923.84;;;-139.99;100.00
24154;BME280;12312;53.362;-1.518;2023-04-03T03:52:46;57923.84;;;-139.99;100.00
24154;BME280;12312;53.362;-1.518;2023-04-03T03:55:30;57923.84;;;-139.99;100.00
24154;BME280;12312;53.362;-1.518;2023-04-03T03:58:14;57923.84;;;-139.99;100.00
24154;BME280;12312;53.362;-1.518;2023-04-03T04:01:03;57923.84;;;-139.99;100.00
24154;BME280;12312;53.362;-1.518;2023-04-03T04:03:48;57923.84;;;-139.99;100.00
24154;BME280;12312;53.362;-1.518;2023-04-03T04:06:32;57923.84;;;-139.99;100.00
24154;BME280;12312;53.362;-1.518;2023-04-03T04:09:15;57923.84;;;-139.99;100.00
24154;BME280;12312;53.362;-1.518;2023-04-03T04:12:00;57923.84;;;-139.99;100.00
24154;BME280;12312;53.362;-1.518;2023-04-03T04:14:43;57923.84;;;-139.99;100.00
24154;BME280;12312;53.362;-1.518;2023-04-03T04:17:30;57923.84;;;-139.99;100.00
24154;BME280;12312;53.362;-1.518;2023-04-03T04:20:14;57923.84;;;-139.99;100.00
24154;BME280;12312;53.362;-1.518;2023-04-03T04:22:59;57923.84;;;-139.99;100.00
24154;BME280;12312;53.362;-1.518;2023-04-03T04:25:47;57923.84;;;-139.99;100.00
24154;BME280;12312;53.362;-1.518;2023-04-03T04:28:32;57923.84;;;-139.99;100.00
24154;BME280;12312;53.362;-1.518;2023-04-03T04:31:16;57923.84;;;-139.99;100.00
24154;BME280;12312;53.362;-1.518;2023-04-03T04:33:59;57923.84;;;-139.99;100.00
24154;BME280;12312;53.362;-1.518;2023-04-03T04:36:43;57923.84;;;-139.99;100.00
24154;BME280;12312;53.362;-1.518;2023-04-03T04:39:27;57923.84;;;-139.99;100.00
24154;BME280;12312;53.362;-1.518;2023-04-03T04:42:11;57923.84;;;-139.99;100.00
24154;BME280;12312;53.362;-1.518;2023-04-03T04:44:56;57923.84;;;-139.99;100.00
24154;BME280;12312;53.362;-1.518;2023-04-03T04:47:41;57923.84;;;-139.99;100.00
24154;BME280;12312;53.362;-1.518;2023-04-03T04:50:25;57923.84;;;-139.99;100.00
24154;BME280;12312;53.362;-1.518;2023-04-03T04:53:09;57923.84;;;-139.99;100.00
24154;BME280;12312;53.362;-1.518;2023-04-03T04:55:53;57923.84;;;-139.99;100.00
24154;BME280;12312;53.362;-1.518;2023-04-03T04:58:38;57923.84;;;-139.99;100.00
24154;BME280;12312;53.362;-1.518;2023-04-03T05:01:21;57923.84;;;-139.99;100.00
24154;BME280;12312;53.362;-1.518;2023-04-03T05:04:05;57923.84;;;-139.99;100.00
24154;BME280;12312;53.362;-1.518;2023-04-03T05:06:49;57923.84;;;-139.99;100.00
24154;BME280;12312;53.362;-1.518;2023-04-03T05:09:33;57923.84;;;-139.99;100.00
24154;BME280;12312;53.362;-1.518;2023-04-03T05:12:18;57923.84;;;-139.99;100.00
24154;BME280;12312;53.362;-1.518;2023-04-03T05:15:02;57923.84;;;-139.99;100.00
24154;BME280;12312;53.362;-1.518;2023-04-03T05:17:46;57923.84;;;-139.99;100.00
24154;BME280;12312;53.362;-1.518;2023-04-03T05:20:31;57923.84;;;-139.99;100.00
24154;BME280;12312;53.362;-1.518;2023-04-03T05:23:16;57923.84;;;-139.99;100.00
24154;BME280;12312;53.362;-1.518;2023-04-03T05:26:00;57923.84;;;-139.99;100.00
24154;BME280;12312;53.362;-1.518;2023-04-03T05:28:44;57923.84;;;-139.99;100.00
24154;BME280;12312;53.362;-1.518;2023-04-03T05:31:28;57923.84;;;-139.99;100.00
24154;BME280;12312;53.362;-1.518;2023-04-03T05:34:13;57923.84;;;-139.99;100.00
24154;BME280;12312;53.362;-1.518;2023-04-03T05:36:57;57923.84;;;-139.99;100.00
24154;BME280;12312;53.362;-1.518;2023-04-03T05:39:41;57923.84;;;-139.99;100.00
24154;BME280;12312;53.362;-1.518;2023-04-03T05:42:26;57923.84;;;-139.99;100.00
24154;BME280;12312;53.362;-1.518;2023-04-03T05:45:10;57923.84;;;-139.99;100.00
24154;BME280;12312;53.362;-1.518;2023-04-03T05:47:54;57923.84;;;-139.99;100.00
24154;BME280;12312;53.362;-1.518;2023-04-03T05:50:38;57923.84;;;-139.99;100.00
24154;BME280;12312;53.362;-1.518;2023-04-03T05:53:28;57923.84;;;-139.99;100.00
24154;BME280;12312;53.362;-1.518;2023-04-03T05:56:13;57923.84;;;-139.99;100.00
24154;BME280;12312;53.362;-1.518;2023-04-03T05:58:57;57923.84;;;-139.99;100.00
24154;BME280;12312;53.362;-1.518;2023-04-03T06:01:41;57923.84;;;-139.99;100.00
24154;BME280;12312;53.362;-1.518;2023-04-03T06:04:25;57923.84;;;-139.99;100.00
24154;BME280;12312;53.362;-1.518;2023-04-03T06:07:18;57923.84;;;-139.99;100.00
24154;BME280;12312;53.362;-1.518;2023-04-03T06:10:05;57923.84;;;-139.99;100.00
24154;BME280;12312;53.362;-1.518;2023-04-03T06:12:50;57923.84;;;-139.99;100.00
24154;BME280;12312;53.362;-1.518;2023-04-03T06:15:36;57923.84;;;-139.99;100.00
24154;BME280;12312;53.362;-1.518;2023-04-03T06:18:20;57923.84;;;-139.99;100.00
24154;BME280;12312;53.362;-1.518;2023-04-03T06:21:04;57923.84;;;-139.99;100.00
24154;BME280;12312;53.362;-1.518;2023-04-03T06:23:49;57923.84;;;-139.99;100.00
24154;BME280;12312;53.362;-1.518;2023-04-03T06:26:34;57923.84;;;-139.99;100.00
24154;BME280;12312;53.362;-1.518;2023-04-03T06:29:19;57923.84;;;-139.99;100.00
24154;BME280;12312;53.362;-1.518;2023-04-03T06:32:03;57923.84;;;-139.99;100.00
24154;BME280;12312;53.362;-1.518;2023-04-03T06:34:47;57923.84;;;-139.99;100.00
24154;BME280;12312;53.362;-1.518;2023-04-03T06:37:32;57923.84;;;-139.99;100.00
24154;BME280;12312;53.362;-1.518;2023-04-03T06:40:21;57923.84;;;-139.99;100.00
24154;BME280;12312;53.362;-1.518;2023-04-03T06:43:05;57923.84;;;-139.99;100.00
24154;BME280;12312;53.362;-1.518;2023-04-03T06:45:51;57923.84;;;-139.99;100.00
24154;BME280;12312;53.362;-1.518;2023-04-03T06:48:35;57923.84;;;-139.99;100.00
24154;BME280;12312;53.362;-1.518;2023-04-03T06:51:25;57923.84;;;-139.99;100.00
24154;BME280;12312;53.362;-1.518;2023-04-03T06:54:10;57923.84;;;-139.99;100.00
24154;BME280;12312;53.362;-1.518;2023-04-03T06:56:54;57923.84;;;-139.99;100.00
24154;BME280;12312;53.362;-1.518;2023-04-03T06:59:38;57923.84;;;-139.99;100.00
24154;BME280;12312;53.362;-1.518;2023-04-03T07:02:22;57923.84;;;-139.99;100.00
24154;BME280;12312;53.362;-1.518;2023-04-03T07:05:07;57923.84;;;-139.99;100.00
24154;BME280;12312;53.362;-1.518;2023-04-03T07:07:52;57923.84;;;-139.99;100.00
24154;BME280;12312;53.362;-1.518;2023-04-03T07:10:38;57923.84;;;-139.99;100.00
24154;BME280;12312;53.362;-1.518;2023-04-03T07:13:21;57923.84;;;-139.99;100.00
24154;BME280;12312;53.362;-1.518;2023-04-03T07:16:06;57923.84;;;-139.99;100.00
24154;BME280;12312;53.362;-1.518;2023-04-03T07:18:50;57923.84;;;-139.99;100.00
24154;BME280;12312;53.362;-1.518;2023-04-03T07:21:34;57923.84;;;-139.99;100.00
24154;BME280;12312;53.362;-1.518;2023-04-03T07:24:19;57923.84;;;-139.99;100.00
24154;BME280;12312;53.362;-1.518;2023-04-03T07:27:03;57923.84;;;-139.99;100.00
24154;BME280;12312;53.362;-1.518;2023-04-03T07:29:46;57923.84;;;-139.99;100.00
24154;BME280;12312;53.362;-1.518;2023-04-03T07:32:32;57923.84;;;-139.99;100.00
24154;BME280;12312;53.362;-1.518;2023-04-03T07:35:16;57923.84;;;-139.99;100.00
24154;BME280;12312;53.362;-1.518;2023-04-03T07:38:01;57923.84;;;-139.99;100.00
24154;BME280;12312;53.362;-1.518;2023-04-03T07:40:49;57923.84;;;-139.99;100.00
24154;BME280;12312;53.362;-1.518;2023-04-03T07:43:34;57923.84;;;-139.99;100.00
24154;BME280;12312;53.362;-1.518;2023-04-03T07:46:18;57923.84;;;-139.99;100.00
24154;BME280;12312;53.362;-1.518;2023-04-03T07:49:02;57923.84;;;-139.99;100.00
24154;BME280;12312;53.362;-1.518;2023-04-03T07:51:46;57923.84;;;-139.99;100.00
24154;BME280;12312;53.362;-1.518;2023-04-03T07:54:32;57923.84;;;-139.99;100.00
24154;BME280;12312;53.362;-1.518;2023-04-03T07:57:16;57923.84;;;-139.99;100.00
24154;BME280;12312;53.362;-1.518;2023-04-03T08:00:00;57923.84;;;-139.99;100.00
24154;BME280;12312;53.362;-1.518;2023-04-03T08:02:45;57923.84;;;-139.99;100.00
24154;BME280;12312;53.362;-1.518;2023-04-03T08:05:41;57923.84;;;-139.99;100.00
24154;BME280;12312;53.362;-1.518;2023-04-03T08:08:25;57923.84;;;-139.99;100.00
24154;BME280;12312;53.362;-1.518;2023-04-03T08:11:11;57923.84;;;-139.99;100.00
24154;BME280;12312;53.362;-1.518;2023-04-03T08:13:55;57923.84;;;-139.99;100.00
24154;BME280;12312;53.362;-1.518;2023-04-03T08:16:40;57923.84;;;-139.99;100.00
24154;BME280;12312;53.362;-1.518;2023-04-03T08:19:24;57923.84;;;-139.99;100.00
24154;BME280;12312;53.362;-1.518;2023-04-03T08:22:08;57923.84;;;-139.99;100.00
24154;BME280;12312;53.362;-1.518;2023-04-03T08:24:52;57923.84;;;-139.99;100.00
24154;BME280;12312;53.362;-1.518;2023-04-03T08:27:36;57923.84;;;-139.99;100.00
24154;BME280;12312;53.362;-1.518;2023-04-03T08:30:20;100754.44;;;6.39;100.00
24154;BME280;12312;53.362;-1.518;2023-04-03T08:33:05;100755.84;;;6.23;100.00
24154;BME280;12312;53.362;-1.518;2023-04-03T08:35:50;100747.19;;;6.18;100.00
24154;BME280;12312;53.362;-1.518;2023-04-03T08:38:34;100747.47;;;6.09;100.00
24154;BME280;12312;53.362;-1.518;2023-04-03T08:41:34;100758.59;;;6.20;100.00
24154;BME280;12312;53.362;-1.518;2023-04-03T08:44:27;100758.13;;;6.06;100.00
24154;BME280;12312;53.362;-1.518;2023-04-03T08:47:24;100750.03;;;6.39;100.00
24154;BME280;12312;53.362;-1.518;2023-04-03T08:50:19;100753.38;;;6.44;100.00
24154;BME280;12312;53.362;-1.518;2023-04-03T08:53:05;100748.81;;;6.22;100.00
24154;BME280;12312;53.362;-1.518;2023-04-03T08:55:55;100755.38;;;6.38;100.00
24154;BME280;12312;53.362;-1.518;2023-04-03T08:58:48;100754.91;;;6.53;100.00
24154;BME280;12312;53.362;-1.518;2023-04-03T09:01:38;100741.66;;;6.53;100.00
24154;BME280;12312;53.362;-1.518;2023-04-03T09:04:31;100754.19;;;6.19;100.00
24154;BME280;12312;53.362;-1.518;2023-04-03T09:07:23;100749.44;;;6.30;100.00
24154;BME280;12312;53.362;-1.518;2023-04-03T09:10:12;100755.28;;;6.41;100.00
24154;BME280;12312;53.362;-1.518;2023-04-03T09:13:05;100746.13;;;6.51;100.00
24154;BME280;12312;53.362;-1.518;2023-04-03T09:15:52;100741.78;;;7.02;100.00
24154;BME280;12312;53.362;-1.518;2023-04-03T09:18:42;100737.81;;;6.89;100.00
24154;BME280;12312;53.362;-1.518;2023-04-03T09:21:37;100743.81;;;6.68;100.00
24154;BME280;12312;53.362;-1.518;2023-04-03T09:24:23;100746.94;;;6.80;100.00
24154;BME280;12312;53.362;-1.518;2023-04-03T09:27:10;100748.81;;;6.77;100.00
24154;BME280;12312;53.362;-1.518;2023-04-03T09:29:56;100742.75;;;6.46;100.00
24154;BME280;12312;53.362;-1.518;2023-04-03T09:32:43;100747.94;;;7.02;100.00
24154;BME280;12312;53.362;-1.518;2023-04-03T09:35:37;100736.31;;;7.06;100.00
24154;BME280;12312;53.362;-1.518;2023-04-03T09:38:24;100736.78;;;6.67;100.00
24154;BME280;12312;53.362;-1.518;2023-04-03T09:41:17;100739.09;;;6.77;100.00
24154;BME280;12312;53.362;-1.518;2023-04-03T09:44:02;100739.34;;;6.96;100.00
24154;BME280;12312;53.362;-1.518;2023-04-03T09:46:46;100740.06;;;6.47;100.00
24154;BME280;12312;53.362;-1.518;2023-04-03T09:49:31;100733.41;;;7.14;100.00
24154;BME280;12312;53.362;-1.518;2023-04-03T09:52:20;100723.72;;;7.39;99.92
24154;BME280;12312;53.362;-1.518;2023-04-03T09:55:19;100724.38;;;7.21;96.85
24154;BME280;12312;53.362;-1.518;2023-04-03T09:58:26;100724.97;;;7.29;99.32
24154;BME280;12312;53.362;-1.518;2023-04-03T10:01:35;100737.59;;;7.70;97.88
24154;BME280;12312;53.362;-1.518;2023-04-03T10:04:19;100726.63;;;7.32;96.71
24154;BME280;12312;53.362;-1.518;2023-04-03T10:10:18;100714.31;;;7.06;99.13
24154;BME280;12312;53.362;-1.518;2023-04-03T10:13:11;100718.41;;;7.14;98.64
24154;BME280;12312;53.362;-1.518;2023-04-03T10:16:12;100717.88;;;7.54;97.44
24154;BME280;12312;53.362;-1.518;2023-04-03T10:19:05;100717.78;;;7.80;95.53
24154;BME280;12312;53.362;-1.518;2023-04-03T10:22:00;100713.28;;;7.59;94.73
24154;BME280;12312;53.362;-1.518;2023-04-03T10:25:04;100723.91;;;7.82;94.03
24154;BME280;12312;53.362;-1.518;2023-04-03T10:28:04;100714.97;;;8.08;93.23
24154;BME280;12312;53.362;-1.518;2023-04-03T10:34:06;100716.28;;;7.96;91.32
24154;BME280;12312;53.362;-1.518;2023-04-03T10:37:05;100708.22;;;7.76;90.88
24154;BME280;12312;53.362;-1.518;2023-04-03T10:39:54;100708.09;;;8.02;92.13
24154;BME280;12312;53.362;-1.518;2023-04-03T10:42:52;100715.53;;;7.93;91.96
24154;BME280;12312;53.362;-1.518;2023-04-03T10:57:35;100704.28;;;8.54;90.02
24154;BME280;12312;53.362;-1.518;2023-04-03T11:00:23;100707.19;;;8.26;89.64
24154;BME280;12312;53.362;-1.518;2023-04-03T11:03:14;100708.97;;;8.26;91.80
24154;BME280;12312;53.362;-1.518;2023-04-03T11:06:02;100707.25;;;8.25;91.31
24154;BME280;12312;53.362;-1.518;2023-04-03T11:12:08;100677.22;;;8.87;89.92
24154;BME280;12312;53.362;-1.518;2023-04-03T11:14:55;100679.75;;;8.27;87.21
24154;BME280;12312;53.362;-1.518;2023-04-03T11:17:45;100681.34;;;8.53;88.63
24154;BME280;12312;53.362;-1.518;2023-04-03T11:20:32;100679.50;;;8.33;88.04
24154;BME280;12312;53.362;-1.518;2023-04-03T11:23:34;100680.34;;;8.55;88.92
24154;BME280;12312;53.362;-1.518;2023-04-03T11:26:26;100671.75;;;8.70;88.76
24154;BME280;12312;53.362;-1.518;2023-04-03T11:29:15;100662.88;;;8.71;87.07
24154;BME280;12312;53.362;-1.518;2023-04-03T11:35:05;100663.00;;;10.60;79.17
24154;BME280;12312;53.362;-1.518;2023-04-03T11:37:52;100662.25;;;11.26;73.35
24154;BME280;12312;53.362;-1.518;2023-04-03T11:40:37;100656.63;;;12.44;72.04
24154;BME280;12312;53.362;-1.518;2023-04-03T11:46:09;100660.34;;;11.78;68.44
24154;BME280;12312;53.362;-1.518;2023-04-03T11:48:54;100656.16;;;11.07;70.35
24154;BME280;12312;53.362;-1.518;2023-04-03T11:51:41;100654.22;;;10.58;72.46
24154;BME280;12312;53.362;-1.518;2023-04-03T11:54:43;100641.72;;;10.77;72.18
24154;BME280;12312;53.362;-1.518;2023-04-03T12:12:27;100627.97;;;12.62;65.66
24154;BME280;12312;53.362;-1.518;2023-04-03T12:24:37;100618.75;;;11.91;64.04
24154;BME280;12312;53.362;-1.518;2023-04-03T12:27:33;100614.00;;;12.72;62.24
24154;BME280;12312;53.362;-1.518;2023-04-03T12:30:25;100612.69;;;13.09;60.36
24154;BME280;12312;53.362;-1.518;2023-04-03T12:36:28;100615.63;;;12.29;60.02
24154;BME280;12312;53.362;-1.518;2023-04-03T12:42:41;100607.41;;;14.05;58.24
24154;BME280;12312;53.362;-1.518;2023-04-03T12:45:40;100602.03;;;13.51;58.50
24154;BME280;12312;53.362;-1.518;2023-04-03T12:48:27;100592.13;;;12.66;61.73
24154;BME280;12312;53.362;-1.518;2023-04-03T12:51:21;100595.91;;;12.77;60.77
24154;BME280;12312;53.362;-1.518;2023-04-03T12:54:26;100583.13;;;13.68;59.32
24154;BME280;12312;53.362;-1.518;2023-04-03T12:57:18;100576.34;;;13.62;58.31
24154;BME280;12312;53.362;-1.518;2023-04-03T13:00:19;100568.22;;;13.64;59.24
24154;BME280;12312;53.362;-1.518;2023-04-03T13:03:05;100576.75;;;13.97;59.05
24154;BME280;12312;53.362;-1.518;2023-04-03T13:05:50;100567.38;;;14.04;58.75
24154;BME280;12312;53.362;-1.518;2023-04-03T13:08:34;100574.16;;;13.55;59.96
24154;BME280;12312;53.362;-1.518;2023-04-03T13:11:20;100567.66;;;13.59;58.91
24154;BME280;12312;53.362;-1.518;2023-04-03T13:14:15;100568.81;;;12.83;60.19
24154;BME280;12312;53.362;-1.518;2023-04-03T13:17:10;100574.81;;;13.30;59.11
24154;BME280;12312;53.362;-1.518;2023-04-03T13:19:56;100561.91;;;13.09;60.08
24154;BME280;12312;53.362;-1.518;2023-04-03T13:25:43;100555.97;;;13.60;61.94
24154;BME280;12312;53.362;-1.518;2023-04-03T13:28:31;100554.94;;;13.06;61.30
24154;BME280;12312;53.362;-1.518;2023-04-03T13:31:24;100550.00;;;12.85;60.41
24154;BME280;12312;53.362;-1.518;2023-04-03T13:36:57;100550.63;;;13.04;61.15
24154;BME280;12312;53.362;-1.518;2023-04-03T13:39:41;100544.19;;;12.03;62.89
24154;BME280;12312;53.362;-1.518;2023-04-03T13:42:30;100540.34;;;12.38;65.85
24154;BME280;12312;53.362;-1.518;2023-04-03T13:45:29;100539.53;;;12.22;65.38
24154;BME280;12312;53.362;-1.518;2023-04-03T13:48:19;100533.66;;;11.86;65.55
24154;BME280;12312;53.362;-1.518;2023-04-03T13:51:27;100533.06;;;12.11;68.09
24154;BME280;12312;53.362;-1.518;2023-04-03T13:54:35;100532.69;;;11.87;67.35
24154;BME280;12312;53.362;-1.518;2023-04-03T13:57:20;100522.88;;;11.72;67.33
24154;BME280;12312;53.362;-1.518;2023-04-03T14:00:48;100525.88;;;12.42;67.48
24154;BME280;12312;53.362;-1.518;2023-04-03T14:06:49;100515.28;;;11.80;67.99
24154;BME280;12312;53.362;-1.518;2023-04-03T14:09:34;100513.13;;;11.71;66.21
24154;BME280;12312;53.362;-1.518;2023-04-03T14:12:38;100522.19;;;11.84;65.25
24154;BME280;12312;53.362;-1.518;2023-04-03T14:15:28;100510.13;;;11.93;66.95
24154;BME280;12312;53.362;-1.518;2023-04-03T14:18:13;100504.41;;;12.14;68.79
24154;BME280;12312;53.362;-1.518;2023-04-03T14:20:57;100497.53;;;12.10;67.75
24154;BME280;12312;53.362;-1.518;2023-04-03T14:23:41;100509.03;;;11.97;67.34
24154;BME280;12312;53.362;-1.518;2023-04-03T14:26:28;100504.91;;;12.21;69.15
24154;BME280;12312;53.362;-1.518;2023-04-03T14:29:14;100503.06;;;12.07;67.59
24154;BME280;12312;53.362;-1.518;2023-04-03T14:31:58;100493.94;;;11.96;67.37
24154;BME280;12312;53.362;-1.518;2023-04-03T14:34:43;100501.31;;;12.06;69.31
24154;BME280;12312;53.362;-1.518;2023-04-03T14:37:29;100484.84;;;11.84;68.27
24154;BME280;12312;53.362;-1.518;2023-04-03T14:40:22;100490.53;;;11.78;67.63
24154;BME280;12312;53.362;-1.518;2023-04-03T14:43:09;100490.34;;;11.97;68.63
24154;BME280;12312;53.362;-1.518;2023-04-03T14:45:53;100487.16;;;11.44;66.35
24154;BME280;12312;53.362;-1.518;2023-04-03T14:48:38;100491.53;;;11.91;67.14
24154;BME280;12312;53.362;-1.518;2023-04-03T14:51:22;100477.91;;;11.66;66.13
24154;BME280;12312;53.362;-1.518;2023-04-03T14:54:13;100477.09;;;11.80;66.98
24154;BME280;12312;53.362;-1.518;2023-04-03T14:56:59;100479.00;;;11.47;65.80
24154;BME280;12312;53.362;-1.518;2023-04-03T14:59:44;100469.34;;;11.60;65.90
24154;BME280;12312;53.362;-1.518;2023-04-03T15:02:37;100476.06;;;11.82;65.70
24154;BME280;12312;53.362;-1.518;2023-04-03T15:05:21;100470.00;;;11.94;67.88
24154;BME280;12312;53.362;-1.518;2023-04-03T15:08:17;100466.28;;;12.12;66.67
24154;BME280;12312;53.362;-1.518;2023-04-03T15:11:03;100471.44;;;11.70;65.58
24154;BME280;12312;53.362;-1.518;2023-04-03T15:13:47;100459.13;;;11.83;65.39
24154;BME280;12312;53.362;-1.518;2023-04-03T15:16:31;100457.56;;;11.79;65.20
24154;BME280;12312;53.362;-1.518;2023-04-03T15:19:15;100463.91;;;11.61;64.61
24154;BME280;12312;53.362;-1.518;2023-04-03T15:21:59;100453.16;;;11.47;63.80
24154;BME280;12312;53.362;-1.518;2023-04-03T15:24:44;100455.59;;;11.36;65.12